Time;durP1;ratioP1;P1;durP2;ratioP2;P2;SDS_P1;SDS_P2;PMS_P1;PMS_P2;Temp;Humidity;BMP_temperature;BMP_pressure;BME280_temperature;BME280_humidity;BME280_pressure;Samples;Min_cycle;Max_cycle;Signal;HPM_P1;HPM_P2
2022/03/31 05:25:41;;;;;;;;;;;;;;;9.81;83.50;94862.25;4260544;27;10332;-64
2022/03/31 05:27:43;;;;;;;;;;;;;;;9.87;83.36;94863.97;4245099;27;5654;-64
2022/03/31 05:29:45;;;;;;;;;;;;;;;9.93;82.86;94857.72;4246876;27;5080;-63
2022/03/31 05:31:47;;;;;;;;;;;;;;;9.99;82.87;94863.09;4246654;27;5828;-64
2022/03/31 05:33:49;;;;;;;;;;;;;;;10.00;83.23;94865.50;4246072;27;5657;-65
2022/03/31 05:35:51;;;;;;;;;;;;;;;10.04;82.94;94863.19;4247775;27;5657;-64
2022/03/31 05:37:55;;;;;;;;;;;;;;;10.06;82.70;94856.63;4246530;27;5658;-64
2022/03/31 05:39:56;;;;;;;;;;;;;;;10.08;82.37;94854.56;4235666;27;5716;-63
2022/03/31 05:41:58;;;;;;;;;;;;;;;9.96;84.10;94853.81;4238099;27;5108;-63
2022/03/31 05:44:00;;;;;;;;;;;;;;;10.05;83.06;94862.94;4245786;27;5517;-63
2022/03/31 05:46:02;;;;;;;;;;;;;;;10.12;82.72;94868.91;4246851;27;5740;-64
2022/03/31 05:48:04;;;;;;;;;;;;;;;10.17;82.80;94866.34;4247323;27;5721;-64
2022/03/31 05:50:08;;;;;;;;;;;;;;;10.19;82.47;94869.56;4240732;27;5736;-64
2022/03/31 05:52:10;;;;;;;;;;;;;;;10.20;82.56;94873.00;4242974;27;5151;-64
2022/03/31 05:54:12;;;;;;;;;;;;;;;10.15;82.84;94872.91;4246974;27;7781;-64
2022/03/31 05:56:13;;;;;;;;;;;;;;;10.11;83.02;94866.50;4247055;27;5805;-64
2022/03/31 05:58:16;;;;;;;;;;;;;;;10.15;82.86;94867.63;4246908;27;5916;-64
2022/03/31 06:00:20;;;;;;;;;;;;;;;10.16;82.75;94866.56;4246681;27;7192;-64
2022/03/31 06:02:22;;;;;;;;;;;;;;;10.12;82.64;94863.63;4247153;27;5743;-64
2022/03/31 06:04:43;;;;;;;;;;;;;;;10.07;82.97;94866.16;4246005;27;5581;-64
2022/03/31 06:06:45;;;;;;;;;;;;;;;10.08;82.52;94864.31;4247237;27;5652;-64
2022/03/31 06:08:47;;;;;;;;;;;;;;;10.07;82.75;94863.50;4247315;27;5648;-64
2022/03/31 06:10:48;;;;;;;;;;;;;;;10.09;82.47;94865.94;4247164;27;5739;-64
2022/03/31 06:12:50;;;;;;;;;;;;;;;10.12;82.23;94868.09;4247396;27;5637;-65
2022/03/31 06:14:52;;;;;;;;;;;;;;;10.14;81.93;94866.81;4246758;27;5805;-65
2022/03/31 06:16:53;;;;;;;;;;;;;;;10.14;82.06;94872.09;4247349;27;5805;-65
2022/03/31 06:18:58;;;;;;;;;;;;;;;10.17;82.50;94868.19;4247114;27;5951;-64
2022/03/31 06:21:01;;;;;;;;;;;;;;;10.20;82.50;94865.88;4247205;27;5641;-64
2022/03/31 06:23:03;;;;;;;;;;;;;;;10.26;82.07;94866.78;4245979;27;5703;-65
2022/03/31 06:25:10;;;;;;;;;;;;;;;10.28;81.92;94871.81;4251487;27;5632;-64
2022/03/31 06:27:11;;;;;;;;;;;;;;;10.31;82.22;94871.38;4252729;27;5628;-65
2022/03/31 06:29:13;;;;;;;;;;;;;;;10.31;82.42;94869.53;4251301;27;5581;-64
2022/03/31 06:31:15;;;;;;;;;;;;;;;10.25;82.63;94862.53;4251077;27;5601;-65
2022/03/31 06:33:18;;;;;;;;;;;;;;;10.29;82.50;94866.31;4252467;27;5853;-65
2022/03/31 06:35:20;;;;;;;;;;;;;;;10.25;83.41;94875.75;4252507;27;5717;-65
2022/03/31 06:37:22;;;;;;;;;;;;;;;10.33;82.71;94864.81;4252615;27;5071;-65
2022/03/31 06:39:23;;;;;;;;;;;;;;;10.32;82.74;94863.22;4252149;27;5663;-65
2022/03/31 06:41:25;;;;;;;;;;;;;;;10.29;81.97;94871.59;4252632;27;5643;-64
2022/03/31 06:43:26;;;;;;;;;;;;;;;10.26;82.43;94866.00;4252184;27;5660;-64
2022/03/31 06:45:28;;;;;;;;;;;;;;;10.23;82.46;94869.91;4250875;27;5788;-65
2022/03/31 06:47:30;;;;;;;;;;;;;;;10.25;82.31;94880.22;4252333;27;6317;-64
2022/03/31 06:49:34;;;;;;;;;;;;;;;10.24;82.44;94866.22;4252307;27;5718;-64
2022/03/31 06:51:35;;;;;;;;;;;;;;;10.22;81.47;94867.50;4251059;27;5688;-64
2022/03/31 06:53:37;;;;;;;;;;;;;;;10.19;81.98;94866.09;4252224;27;5855;-64
2022/03/31 06:55:39;;;;;;;;;;;;;;;10.20;81.85;94870.38;4250795;27;5589;-64
2022/03/31 06:57:41;;;;;;;;;;;;;;;10.23;81.99;94872.56;4252162;27;6465;-64
2022/03/31 06:59:43;;;;;;;;;;;;;;;10.26;81.67;94866.78;4239743;27;5747;-63
2022/03/31 07:01:49;;;;;;;;;;;;;;;10.31;81.71;94869.53;4235221;28;5753;-64
2022/03/31 07:03:52;;;;;;;;;;;;;;;10.30;81.99;94865.25;4230119;28;5749;-64
2022/03/31 07:05:54;;;;;;;;;;;;;;;10.28;81.83;94863.91;4218492;28;5681;-64
2022/03/31 07:07:56;;;;;;;;;;;;;;;10.24;81.86;94866.22;4228564;28;5084;-64
2022/03/31 07:09:59;;;;;;;;;;;;;;;10.33;81.66;94864.00;4235117;28;5701;-64
2022/03/31 07:12:01;;;;;;;;;;;;;;;10.37;81.55;94862.47;4234892;28;5729;-64
2022/03/31 07:14:05;;;;;;;;;;;;;;;10.35;81.22;94862.72;4233262;28;5608;-64
2022/03/31 07:16:08;;;;;;;;;;;;;;;10.33;81.00;94870.09;4234663;28;5724;-64
2022/03/31 07:18:10;;;;;;;;;;;;;;;10.31;81.39;94872.19;4234489;28;5665;-64
2022/03/31 07:20:11;;;;;;;;;;;;;;;10.29;81.57;94876.06;4235057;28;5717;-63
2022/03/31 07:22:13;;;;;;;;;;;;;;;10.30;81.42;94875.03;4235032;28;6362;-64
2022/03/31 07:24:15;;;;;;;;;;;;;;;10.27;81.37;94871.03;4227398;28;5667;-63
2022/03/31 07:26:17;;;;;;;;;;;;;;;10.31;80.95;94874.81;4231812;27;5636;-64
2022/03/31 07:28:19;;;;;;;;;;;;;;;10.26;81.52;94864.16;4250189;27;5596;-64
2022/03/31 07:30:22;;;;;;;;;;;;;;;10.28;81.75;94866.53;4251426;27;5713;-64
2022/03/31 07:32:25;;;;;;;;;;;;;;;10.23;81.82;94869.09;4251665;27;5651;-64
2022/03/31 07:34:27;;;;;;;;;;;;;;;10.16;82.01;94869.22;4251759;27;5624;-64
2022/03/31 07:36:28;;;;;;;;;;;;;;;10.12;82.27;94868.09;4251471;27;5686;-64
2022/03/31 07:38:31;;;;;;;;;;;;;;;10.13;82.09;94869.69;4249731;27;5634;-64
2022/03/31 07:40:35;;;;;;;;;;;;;;;10.12;82.85;94868.09;4250323;27;5086;-64
2022/03/31 07:42:37;;;;;;;;;;;;;;;10.14;83.11;94866.00;4251525;27;7695;-64
2022/03/31 07:44:39;;;;;;;;;;;;;;;10.25;83.12;94861.75;4251313;27;5631;-64
2022/03/31 07:46:41;;;;;;;;;;;;;;;10.36;82.24;94869.59;4251272;27;5617;-67
2022/03/31 07:48:43;;;;;;;;;;;;;;;10.41;81.47;94872.31;4251591;27;5639;-65
2022/03/31 07:50:45;;;;;;;;;;;;;;;10.37;81.74;94873.03;4251421;27;5620;-64
2022/03/31 07:52:47;;;;;;;;;;;;;;;10.36;82.47;94874.09;4250000;27;5585;-65
2022/03/31 07:54:49;;;;;;;;;;;;;;;10.25;82.69;94873.09;4232805;27;5643;-64
2022/03/31 07:56:52;;;;;;;;;;;;;;;10.13;83.68;94874.97;4251559;27;5675;-64
2022/03/31 07:58:54;;;;;;;;;;;;;;;10.29;82.44;94868.94;4251351;27;5616;-64
2022/03/31 08:00:57;;;;;;;;;;;;;;;10.34;83.11;94876.97;4249770;27;5597;-64
2022/03/31 08:03:01;;;;;;;;;;;;;;;10.45;82.50;94867.38;4250001;27;6271;-64
2022/03/31 08:05:03;;;;;;;;;;;;;;;10.45;82.36;94872.66;4237407;27;5707;-64
2022/03/31 08:07:09;;;;;;;;;;;;;;;10.46;82.18;94872.44;4233103;28;5608;-64
2022/03/31 08:09:12;;;;;;;;;;;;;;;10.40;81.97;94876.00;4232705;28;5601;-64
2022/03/31 08:11:14;;;;;;;;;;;;;;;10.31;82.46;94866.09;4233834;28;5710;-64
2022/03/31 08:13:26;;;;;;;;;;;;;;;9.98;84.82;94872.88;4233940;27;5637;-64
2022/03/31 08:15:27;;;;;;;;;;;;;;;9.68;88.00;94875.72;4232373;28;5683;-65
2022/03/31 08:17:30;;;;;;;;;;;;;;;10.03;84.45;94872.16;4232698;28;5624;-64
2022/03/31 08:19:32;;;;;;;;;;;;;;;10.19;83.40;94871.38;4233821;28;6477;-65
2022/03/31 08:21:34;;;;;;;;;;;;;;;10.25;82.72;94873.09;4233714;28;5831;-64
2022/03/31 08:23:36;;;;;;;;;;;;;;;10.28;82.71;94863.91;4232400;28;5608;-64
2022/03/31 08:25:40;;;;;;;;;;;;;;;10.24;82.92;94863.59;4233678;27;5186;-64
2022/03/31 08:27:42;;;;;;;;;;;;;;;10.20;82.68;94868.53;4250625;27;5632;-64
2022/03/31 08:29:45;;;;;;;;;;;;;;;10.08;83.49;94867.78;4250566;27;5631;-64
2022/03/31 08:31:47;;;;;;;;;;;;;;;10.03;82.98;94858.94;4250536;27;6297;-64
2022/03/31 08:33:49;;;;;;;;;;;;;;;10.03;83.30;94870.31;4250513;27;5637;-64
2022/03/31 08:35:51;;;;;;;;;;;;;;;10.00;83.44;94860.22;4249643;27;5597;-64
2022/03/31 08:37:52;;;;;;;;;;;;;;;10.06;83.08;94861.09;4249302;27;5685;-64
2022/03/31 08:39:55;;;;;;;;;;;;;;;10.10;82.34;94857.78;4250521;27;5628;-64
2022/03/31 08:41:56;;;;;;;;;;;;;;;10.22;81.95;94856.94;4249316;27;5593;-64
2022/03/31 08:43:59;;;;;;;;;;;;;;;10.28;81.70;94859.41;4250473;27;5700;-64
2022/03/31 08:46:01;;;;;;;;;;;;;;;10.36;81.75;94864.31;4248999;27;5582;-64
2022/03/31 08:48:04;;;;;;;;;;;;;;;10.41;81.54;94869.69;4249108;27;6388;-65
2022/03/31 08:50:08;;;;;;;;;;;;;;;10.47;81.36;94868.75;4250318;27;5749;-64
2022/03/31 08:52:10;;;;;;;;;;;;;;;10.50;81.10;94868.25;4250094;27;5628;-64
2022/03/31 08:54:12;;;;;;;;;;;;;;;10.64;80.82;94865.28;4248944;27;5589;-64
2022/03/31 08:56:14;;;;;;;;;;;;;;;10.57;81.21;94870.75;4248801;27;5586;-65
2022/03/31 08:58:16;;;;;;;;;;;;;;;10.72;80.28;94867.53;4250046;27;5616;-65
2022/03/31 09:00:20;;;;;;;;;;;;;;;10.75;79.87;94873.13;4250048;27;5628;-64
2022/03/31 09:02:26;;;;;;;;;;;;;;;10.75;78.10;94867.06;4250159;27;5722;-64
2022/03/31 09:04:28;;;;;;;;;;;;;;;10.49;78.80;94864.00;4242293;27;5803;-64
2022/03/31 09:06:37;;;;;;;;;;;;;;;10.81;78.91;94866.09;4233124;28;5715;-64
2022/03/31 09:08:39;;;;;;;;;;;;;;;11.11;78.72;94863.13;4233208;28;5830;-64
2022/03/31 09:10:55;;;;;;;;;;;;;;;11.22;75.71;94859.56;4232865;28;5653;-64
2022/03/31 09:12:58;;;;;;;;;;;;;;;11.17;75.64;94850.75;4231980;28;5716;-64
2022/03/31 09:15:12;;;;;;;;;;;;;;;11.03;75.36;94859.03;4232520;28;5783;-63
2022/03/31 09:17:16;;;;;;;;;;;;;;;11.03;75.86;94860.88;4231720;28;6227;-66
2022/03/31 09:19:18;;;;;;;;;;;;;;;10.97;75.88;94853.91;4233309;28;5665;-65
2022/03/31 09:21:22;;;;;;;;;;;;;;;10.94;75.35;94855.19;4232982;28;5750;-64
2022/03/31 09:23:27;;;;;;;;;;;;;;;10.95;74.87;94864.72;4231995;28;5612;-64
2022/03/31 09:25:29;;;;;;;;;;;;;;;10.87;75.47;94859.84;4216578;27;5750;-65
2022/03/31 09:27:34;;;;;;;;;;;;;;;10.45;78.29;94857.63;4250380;27;5628;-64
2022/03/31 09:29:36;;;;;;;;;;;;;;;10.74;77.19;94860.97;4249789;27;6324;-64
2022/03/31 09:31:38;;;;;;;;;;;;;;;10.77;76.44;94860.50;4249687;27;5632;-65
2022/03/31 09:33:48;;;;;;;;;;;;;;;10.89;76.84;94868.34;4248976;27;5120;-65
2022/03/31 09:35:59;;;;;;;;;;;;;;;10.93;76.33;94853.59;4250056;27;7703;-64
2022/03/31 09:38:11;;;;;;;;;;;;;;;10.95;76.34;94854.16;4250163;27;5636;-64
2022/03/31 09:40:13;;;;;;;;;;;;;;;10.81;77.23;94860.81;4250132;27;5654;-65
2022/03/31 09:42:18;;;;;;;;;;;;;;;10.84;77.88;94867.47;4249024;27;5606;-65
2022/03/31 09:44:22;;;;;;;;;;;;;;;10.56;80.21;94865.72;4249571;27;5636;-64
2022/03/31 09:46:26;;;;;;;;;;;;;;;10.69;79.71;94866.19;4249974;27;5628;-64
2022/03/31 09:48:33;;;;;;;;;;;;;;;10.86;78.98;94868.81;4249091;27;5597;-65
2022/03/31 09:50:36;;;;;;;;;;;;;;;10.64;79.73;94871.38;4250120;27;5643;-64
2022/03/31 09:52:40;;;;;;;;;;;;;;;10.71;79.04;94865.94;4248467;27;5569;-64
2022/03/31 09:54:42;;;;;;;;;;;;;;;10.77;78.53;94871.09;4249539;27;5726;-64
2022/03/31 09:56:44;;;;;;;;;;;;;;;10.81;77.42;94866.09;4249815;27;6333;-64
2022/03/31 09:58:49;;;;;;;;;;;;;;;10.81;78.47;94860.81;4249981;27;5631;-65
2022/03/31 10:00:51;;;;;;;;;;;;;;;10.79;77.76;94860.25;4250640;27;5636;-64
2022/03/31 10:02:53;;;;;;;;;;;;;;;10.74;77.93;94858.31;4234628;28;5718;-65
2022/03/31 10:05:15;;;;;;;;;;;;;;;10.55;78.80;94861.47;4239185;27;6211;-64
2022/03/31 10:07:17;;;;;;;;;;;;;;;10.70;78.38;94869.63;4236429;28;5636;-64
2022/03/31 10:09:20;;;;;;;;;;;;;;;10.75;77.80;94869.69;4234852;28;5663;-65
2022/03/31 10:11:24;;;;;;;;;;;;;;;10.22;79.17;94870.94;4236167;28;5079;-65
2022/03/31 10:13:36;;;;;;;;;;;;;;;10.42;79.26;94862.59;4235663;28;5806;-65
2022/03/31 10:15:41;;;;;;;;;;;;;;;10.45;76.55;94862.91;4235519;27;5649;-65
2022/03/31 10:17:43;;;;;;;;;;;;;;;9.95;78.72;94851.41;4236117;28;5747;-65
2022/03/31 10:19:45;;;;;;;;;;;;;;;10.30;77.03;94856.53;4235900;28;5665;-64
2022/03/31 10:21:56;;;;;;;;;;;;;;;9.93;79.00;94847.16;4235809;27;5649;-65
2022/03/31 10:26:27;;;;;;;;;;;;;;;9.97;78.34;94846.72;4233520;27;5777;-65
2022/03/31 10:28:28;;;;;;;;;;;;;;;9.92;78.91;94850.03;4251400;27;6290;-65
2022/03/31 10:30:30;;;;;;;;;;;;;;;9.91;77.57;94843.97;4252435;27;5719;-64
2022/03/31 10:32:32;;;;;;;;;;;;;;;9.88;77.14;94835.72;4252955;27;5099;-65
2022/03/31 10:34:34;;;;;;;;;;;;;;;10.10;75.82;94841.13;4251417;27;5597;-65
2022/03/31 10:36:50;;;;;;;;;;;;;;;10.11;75.30;94840.09;4252920;27;6229;-64
2022/03/31 10:38:57;;;;;;;;;;;;;;;9.67;76.98;94837.19;4252724;27;5715;-64
2022/03/31 10:41:06;;;;;;;;;;;;;;;9.90;77.12;94845.00;4251291;27;5689;-64
2022/03/31 10:43:25;;;;;;;;;;;;;;;9.76;77.92;94842.88;4252585;27;5706;-65
2022/03/31 10:45:40;;;;;;;;;;;;;;;10.07;77.09;94844.22;4252342;27;5628;-65
2022/03/31 10:47:43;;;;;;;;;;;;;;;10.19;76.83;94844.97;4252501;27;5691;-65
2022/03/31 10:49:54;;;;;;;;;;;;;;;10.33;76.86;94843.69;4252430;27;5664;-65
2022/03/31 10:51:56;;;;;;;;;;;;;;;10.38;76.69;94841.09;4252705;27;5632;-64
2022/03/31 10:53:58;;;;;;;;;;;;;;;10.38;75.94;94835.81;4252459;27;5865;-65
2022/03/31 10:56:02;;;;;;;;;;;;;;;10.39;75.88;94837.44;4252007;27;5810;-65
2022/03/31 10:58:19;;;;;;;;;;;;;;;10.54;75.40;94836.09;4252327;27;5659;-64
2022/03/31 11:00:21;;;;;;;;;;;;;;;10.56;75.74;94831.38;4252284;27;5071;-65
2022/03/31 11:02:23;;;;;;;;;;;;;;;10.55;76.00;94832.41;4252245;27;7715;-65
2022/03/31 11:04:26;;;;;;;;;;;;;;;10.58;75.76;94834.56;4252009;27;5714;-66
2022/03/31 11:06:29;;;;;;;;;;;;;;;10.60;75.85;94832.47;4237692;27;5607;-65
2022/03/31 11:08:48;;;;;;;;;;;;;;;10.53;75.94;94834.47;4233639;28;5628;-65
2022/03/31 11:10:52;;;;;;;;;;;;;;;10.28;76.74;94825.09;4233810;28;5672;-65
2022/03/31 11:12:54;;;;;;;;;;;;;;;10.49;76.56;94826.22;4234826;27;5657;-65
2022/03/31 11:14:59;;;;;;;;;;;;;;;10.64;76.19;94828.28;4234760;28;6307;-64
2022/03/31 11:17:01;;;;;;;;;;;;;;;10.80;75.75;94827.50;4233372;28;5584;-65
2022/03/31 11:19:05;;;;;;;;;;;;;;;10.95;75.33;94825.06;4234910;28;5094;-64
2022/03/31 11:21:07;;;;;;;;;;;;;;;10.98;73.35;94827.22;4233483;28;7675;-65
2022/03/31 11:23:09;;;;;;;;;;;;;;;10.84;72.36;94820.69;4234901;27;5645;-65
2022/03/31 11:25:12;;;;;;;;;;;;;;;11.07;72.89;94817.03;4201344;28;5725;-65
2022/03/31 11:27:13;;;;;;;;;;;;;;;11.18;71.50;94816.13;4248038;27;5620;-65
2022/03/31 11:29:21;;;;;;;;;;;;;;;11.21;71.91;94817.47;4251611;27;5632;-65
2022/03/31 11:31:23;;;;;;;;;;;;;;;11.30;72.30;94814.16;4251610;27;5722;-65
2022/03/31 11:33:33;;;;;;;;;;;;;;;11.34;70.54;94810.00;4251724;27;5683;-65
2022/03/31 11:35:36;;;;;;;;;;;;;;;11.11;71.07;94802.28;4250588;27;5675;-65
2022/03/31 11:37:50;;;;;;;;;;;;;;;11.26;69.53;94810.41;4251720;27;5619;-65
2022/03/31 11:39:52;;;;;;;;;;;;;;;11.41;68.72;94817.72;4241306;27;5720;-65
2022/03/31 11:41:58;;;;;;;;;;;;;;;11.48;69.38;94810.44;4230248;28;5628;-65
2022/03/31 11:43:59;;;;;;;;;;;;;;;11.71;68.45;94805.91;4232829;28;5604;-65
2022/03/31 11:46:01;;;;;;;;;;;;;;;11.53;68.54;94804.38;4233887;28;5665;-65
2022/03/31 11:48:14;;;;;;;;;;;;;;;11.72;69.54;94802.22;4229042;28;5775;-65
2022/03/31 11:50:18;;;;;;;;;;;;;;;12.04;68.99;94800.47;4217580;28;6451;-65
2022/03/31 11:52:28;;;;;;;;;;;;;;;11.83;68.33;94798.66;4224895;28;5831;-65
2022/03/31 11:54:30;;;;;;;;;;;;;;;11.74;67.43;94789.53;4228660;28;5660;-65
2022/03/31 11:56:32;;;;;;;;;;;;;;;11.87;68.21;94794.47;4220751;28;5833;-65
2022/03/31 11:58:42;;;;;;;;;;;;;;;11.95;68.22;94789.53;4232572;28;5673;-65
2022/03/31 12:00:49;;;;;;;;;;;;;;;11.73;68.68;94796.66;4228549;28;5612;-65
2022/03/31 12:03:03;;;;;;;;;;;;;;;11.53;67.73;94784.00;4232790;27;5739;-65
2022/03/31 12:05:13;;;;;;;;;;;;;;;11.52;70.08;94781.63;4232642;28;5660;-65
2022/03/31 12:07:19;;;;;;;;;;;;;;;11.66;68.45;94783.66;4231571;28;5592;-65
2022/03/31 12:09:26;;;;;;;;;;;;;;;11.64;68.86;94785.72;4232709;28;5768;-65
2022/03/31 12:11:29;;;;;;;;;;;;;;;11.55;67.68;94781.94;4231258;28;5612;-64
2022/03/31 12:13:31;;;;;;;;;;;;;;;11.78;68.58;94780.03;4232651;28;5843;-65
2022/03/31 12:15:33;;;;;;;;;;;;;;;11.84;67.43;94779.06;4232184;28;7743;-65
2022/03/31 12:17:35;;;;;;;;;;;;;;;11.77;67.37;94779.22;4232607;28;5673;-65
2022/03/31 12:19:41;;;;;;;;;;;;;;;11.70;67.89;94775.19;4232680;28;5673;-65
2022/03/31 12:21:48;;;;;;;;;;;;;;;11.81;67.21;94779.59;4231114;28;5616;-64
2022/03/31 12:23:51;;;;;;;;;;;;;;;11.51;68.30;94775.53;4231768;27;5731;-64
2022/03/31 12:26:16;;;;;;;;;;;;;;;11.81;68.58;94777.75;4233346;27;6492;-64
2022/03/31 12:28:20;;;;;;;;;;;;;;;11.87;68.37;94778.56;4232428;28;5648;-64
2022/03/31 12:30:22;;;;;;;;;;;;;;;11.61;68.20;94773.00;4232112;28;5837;-65
2022/03/31 12:32:23;;;;;;;;;;;;;;;11.84;68.19;94773.78;4232476;28;5656;-65
2022/03/31 12:34:25;;;;;;;;;;;;;;;12.01;68.19;94773.69;4228425;28;5738;-65
2022/03/31 12:36:33;;;;;;;;;;;;;;;11.94;67.57;94769.38;4232303;28;5684;-64
2022/03/31 12:38:42;;;;;;;;;;;;;;;11.90;67.72;94768.31;4216595;28;5810;-64
2022/03/31 12:40:44;;;;;;;;;;;;;;;11.77;68.35;94770.50;4216493;28;5702;-64
2022/03/31 12:42:53;;;;;;;;;;;;;;;12.04;67.91;94763.38;4216490;28;5670;-65
2022/03/31 12:44:55;;;;;;;;;;;;;;;12.02;68.19;94764.69;4216033;28;5700;-65
2022/03/31 12:46:59;;;;;;;;;;;;;;;12.01;68.88;94763.09;4230537;28;5887;-65
2022/03/31 12:49:08;;;;;;;;;;;;;;;12.08;68.80;94761.81;4230947;28;5797;-64
2022/03/31 12:51:10;;;;;;;;;;;;;;;12.00;67.47;94762.28;4225894;28;5745;-64
2022/03/31 12:53:14;;;;;;;;;;;;;;;11.91;68.32;94761.16;4219418;28;6091;-65
2022/03/31 12:55:16;;;;;;;;;;;;;;;11.98;68.81;94763.59;4230979;28;5775;-65
2022/03/31 12:57:27;;;;;;;;;;;;;;;11.91;69.87;94763.81;4232034;28;5908;-65
2022/03/31 12:59:31;;;;;;;;;;;;;;;11.80;70.52;94762.09;4230968;28;5738;-66
2022/03/31 13:01:33;;;;;;;;;;;;;;;11.79;71.53;94765.78;4232050;28;5672;-64
2022/03/31 13:03:35;;;;;;;;;;;;;;;11.56;72.10;94762.38;4232272;28;5668;-64
2022/03/31 13:05:37;;;;;;;;;;;;;;;11.56;71.98;94761.56;4231727;28;5642;-64
2022/03/31 13:07:39;;;;;;;;;;;;;;;11.46;71.54;94758.81;4232228;28;5653;-65
2022/03/31 13:09:43;;;;;;;;;;;;;;;11.58;71.01;94765.56;4231360;28;5669;-64
2022/03/31 13:11:47;;;;;;;;;;;;;;;11.50;70.42;94760.69;4231735;28;5759;-64
2022/03/31 13:13:48;;;;;;;;;;;;;;;11.51;70.93;94759.66;4231532;28;5732;-65
2022/03/31 13:15:51;;;;;;;;;;;;;;;11.38;70.91;94757.38;4231760;28;5822;-64
2022/03/31 13:17:53;;;;;;;;;;;;;;;11.22;71.42;94758.28;4231988;28;5748;-65
2022/03/31 13:19:55;;;;;;;;;;;;;;;11.31;71.92;94748.81;4230481;28;5616;-65
2022/03/31 13:21:58;;;;;;;;;;;;;;;11.20;73.23;94755.84;4231786;27;5672;-65
2022/03/31 13:24:01;;;;;;;;;;;;;;;11.05;73.88;94753.81;4219557;28;5924;-64
2022/03/31 13:26:06;;;;;;;;;;;;;;;10.43;73.06;94754.03;4228385;27;5759;-64
2022/03/31 13:28:08;;;;;;;;;;;;;;;10.32;75.64;94754.13;4215595;28;5756;-64
2022/03/31 13:30:11;;;;;;;;;;;;;;;10.60;74.82;94750.56;4227101;28;5728;-63
2022/03/31 13:32:16;;;;;;;;;;;;;;;10.80;75.58;94737.63;4227843;28;5648;-65
2022/03/31 13:34:22;;;;;;;;;;;;;;;11.05;75.77;94743.25;4221912;28;5658;-64
2022/03/31 13:36:27;;;;;;;;;;;;;;;11.00;74.96;94748.47;4229879;28;5797;-65
2022/03/31 13:38:34;;;;;;;;;;;;;;;11.07;75.64;94743.78;4235033;28;5637;-64
2022/03/31 13:40:37;;;;;;;;;;;;;;;11.07;75.40;94735.84;4236224;28;5664;-64
2022/03/31 13:42:39;;;;;;;;;;;;;;;11.24;74.03;94737.66;4234276;28;5812;-65
2022/03/31 13:44:42;;;;;;;;;;;;;;;11.30;73.03;94736.66;4234276;28;5846;-65
2022/03/31 13:46:48;;;;;;;;;;;;;;;11.36;72.91;94739.13;4226965;27;5809;-65
2022/03/31 13:48:52;;;;;;;;;;;;;;;11.40;74.83;94741.25;4231810;28;5793;-65
2022/03/31 13:50:55;;;;;;;;;;;;;;;11.41;73.75;94738.38;4226461;28;5757;-65
2022/03/31 13:55:17;;;;;;;;;;;;;;;11.44;73.70;94751.13;4235307;28;5763;-64
2022/03/31 14:02:01;;;;;;;;;;;;;;;11.42;73.99;94755.03;4234573;28;5867;-64
2022/03/31 14:04:04;;;;;;;;;;;;;;;11.30;74.55;94752.53;4233415;28;5661;-64
2022/03/31 14:06:06;;;;;;;;;;;;;;;11.34;74.42;94753.66;4234409;28;5653;-65
2022/03/31 14:08:08;;;;;;;;;;;;;;;11.41;73.43;94762.19;4234801;28;5786;-64
2022/03/31 14:10:12;;;;;;;;;;;;;;;11.23;72.17;94768.59;4233269;28;5608;-64
2022/03/31 14:12:14;;;;;;;;;;;;;;;11.32;71.30;94771.59;4217723;28;5626;-65
2022/03/31 14:14:18;;;;;;;;;;;;;;;11.19;70.55;94766.66;4234080;28;5670;-64
2022/03/31 14:16:20;;;;;;;;;;;;;;;10.85;70.07;94771.25;4234080;28;5738;-64
2022/03/31 14:18:22;;;;;;;;;;;;;;;10.73;70.86;94787.22;4234293;28;5741;-65
2022/03/31 14:20:25;;;;;;;;;;;;;;;10.72;70.07;94789.06;4234482;28;5677;-64
2022/03/31 14:22:27;;;;;;;;;;;;;;;10.31;69.40;94782.38;4234477;28;5653;-65
2022/03/31 14:24:29;;;;;;;;;;;;;;;9.93;68.70;94783.81;4233937;28;6512;-64
2022/03/31 14:26:31;;;;;;;;;;;;;;;9.53;69.90;94786.53;4238480;27;5208;-64
2022/03/31 14:28:36;;;;;;;;;;;;;;;9.50;70.59;94788.81;4234608;28;5708;-64
2022/03/31 14:30:39;;;;;;;;;;;;;;;9.57;70.66;94786.84;4232325;28;5624;-65
2022/03/31 14:32:47;;;;;;;;;;;;;;;9.45;72.88;94788.72;4233150;28;5600;-64
2022/03/31 14:34:49;;;;;;;;;;;;;;;9.42;71.57;94784.75;4232890;28;6272;-64
2022/03/31 14:36:54;;;;;;;;;;;;;;;9.51;72.62;94785.13;4216051;28;6276;-65
2022/03/31 14:38:57;;;;;;;;;;;;;;;9.55;71.11;94788.94;4234332;28;5760;-64
2022/03/31 14:41:09;;;;;;;;;;;;;;;9.47;72.55;94797.22;4234241;28;5645;-64
2022/03/31 14:43:11;;;;;;;;;;;;;;;9.52;72.12;94799.97;4234255;28;5099;-65
2022/03/31 14:45:13;;;;;;;;;;;;;;;9.75;72.18;94799.88;4229849;28;7705;-65
2022/03/31 14:47:16;;;;;;;;;;;;;;;9.95;71.84;94802.06;4227464;28;5657;-64
2022/03/31 14:49:18;;;;;;;;;;;;;;;9.61;70.72;94811.72;4222559;27;5730;-64
2022/03/31 14:51:23;;;;;;;;;;;;;;;9.46;71.59;94814.06;4234757;27;5793;-65
2022/03/31 14:53:25;;;;;;;;;;;;;;;9.32;73.44;94811.72;4226166;27;5780;-65
2022/03/31 14:55:27;;;;;;;;;;;;;;;9.31;74.69;94815.38;4214823;28;5817;-64
2022/03/31 14:57:29;;;;;;;;;;;;;;;9.00;75.20;94819.22;4225881;28;6413;-64
2022/03/31 14:59:31;;;;;;;;;;;;;;;8.75;76.32;94816.81;4231301;28;5827;-64
2022/03/31 15:01:33;;;;;;;;;;;;;;;8.95;73.75;94821.75;4226113;28;5752;-65
2022/03/31 15:03:36;;;;;;;;;;;;;;;8.82;75.19;94826.44;4219064;28;5769;-64
2022/03/31 15:05:37;;;;;;;;;;;;;;;8.83;73.56;94812.22;4229696;28;5729;-65
2022/03/31 15:07:41;;;;;;;;;;;;;;;8.81;73.11;94814.28;4232136;28;5796;-63
2022/03/31 15:14:32;;;;;;;;;;;;;;;8.86;73.34;94817.06;4223626;28;5875;-63
2022/03/31 15:16:34;;;;;;;;;;;;;;;9.24;72.69;94824.44;4227244;27;5760;-64
2022/03/31 15:18:40;;;;;;;;;;;;;;;9.36;72.54;94824.41;4214114;28;5774;-64
2022/03/31 15:20:42;;;;;;;;;;;;;;;9.44;73.10;94826.69;4214859;28;5833;-64
2022/03/31 15:22:44;;;;;;;;;;;;;;;9.49;73.63;94829.41;4214804;28;5773;-64
2022/03/31 15:24:48;;;;;;;;;;;;;;;9.68;73.84;94822.16;4214600;28;5840;-64
2022/03/31 15:26:50;;;;;;;;;;;;;;;9.81;73.22;94827.94;4238264;27;5791;-64
2022/03/31 15:28:51;;;;;;;;;;;;;;;9.88;72.42;94830.44;4246641;27;5708;-64
2022/03/31 15:30:53;;;;;;;;;;;;;;;9.85;72.97;94826.44;4241969;27;6610;-64
2022/03/31 15:32:55;;;;;;;;;;;;;;;9.85;72.97;94830.91;4231208;27;5787;-64
2022/03/31 15:34:57;;;;;;;;;;;;;;;9.85;73.15;94834.38;4230262;28;5752;-64
2022/03/31 15:36:58;;;;;;;;;;;;;;;9.81;71.82;94835.84;4212946;28;5745;-67
2022/03/31 15:39:00;;;;;;;;;;;;;;;9.71;71.13;94835.66;4231345;28;5744;-64
2022/03/31 15:41:02;;;;;;;;;;;;;;;9.68;71.78;94843.25;4220206;28;5865;-64
2022/03/31 15:43:04;;;;;;;;;;;;;;;9.73;72.66;94836.22;4214766;28;5789;-64
2022/03/31 15:45:07;;;;;;;;;;;;;;;9.73;72.84;94838.84;4223016;28;5728;-64
2022/03/31 15:47:11;;;;;;;;;;;;;;;9.77;73.21;94845.28;4231140;28;6425;-64
2022/03/31 15:49:14;;;;;;;;;;;;;;;9.81;73.08;94843.78;4214533;28;5773;-64
2022/03/31 15:51:15;;;;;;;;;;;;;;;9.81;73.82;94846.41;4214390;28;5841;-64
2022/03/31 15:53:17;;;;;;;;;;;;;;;9.79;74.78;94847.69;4229105;28;5748;-64
2022/03/31 15:55:19;;;;;;;;;;;;;;;9.34;73.42;94851.81;4231410;28;5739;-64
2022/03/31 15:57:21;;;;;;;;;;;;;;;9.03;72.65;94862.75;4231264;28;5828;-65
2022/03/31 15:59:23;;;;;;;;;;;;;;;9.14;72.61;94850.59;4230200;28;5412;-64
2022/03/31 16:01:25;;;;;;;;;;;;;;;9.20;72.37;94850.47;4228504;28;7693;-64
2022/03/31 16:03:27;;;;;;;;;;;;;;;9.06;72.45;94857.03;4246112;27;5626;-64
2022/03/31 16:05:29;;;;;;;;;;;;;;;8.87;72.54;94860.81;4226264;28;5756;-64
2022/03/31 16:07:32;;;;;;;;;;;;;;;8.53;72.34;94855.28;4219836;27;5749;-63
2022/03/31 16:09:34;;;;;;;;;;;;;;;8.63;72.65;94866.06;4220924;28;5773;-64
2022/03/31 16:11:36;;;;;;;;;;;;;;;8.40;74.25;94861.56;4230505;28;5865;-64
2022/03/31 16:13:42;;;;;;;;;;;;;;;8.48;74.06;94867.53;4224830;28;7130;-64
2022/03/31 16:15:43;;;;;;;;;;;;;;;8.58;74.44;94873.03;4226033;28;5661;-64
2022/03/31 16:17:45;;;;;;;;;;;;;;;8.56;74.45;94873.28;4233094;28;5611;-63
2022/03/31 16:20:11;;;;;;;;;;;;;;;8.86;73.60;94880.28;4233530;28;5656;-63
2022/03/31 16:22:13;;;;;;;;;;;;;;;8.87;73.34;94879.25;4230567;28;5772;-63
2022/03/31 16:24:15;;;;;;;;;;;;;;;8.82;72.97;94882.56;4233276;28;5645;-64
2022/03/31 16:26:19;;;;;;;;;;;;;;;8.90;72.87;94894.59;4235697;27;5080;-65
2022/03/31 16:28:22;;;;;;;;;;;;;;;8.69;72.89;94894.13;4233606;28;5641;-64
2022/03/31 16:30:23;;;;;;;;;;;;;;;8.43;71.41;94897.19;4224669;28;5691;-65
2022/03/31 16:32:25;;;;;;;;;;;;;;;8.27;72.62;94901.25;4216915;28;5899;-64
2022/03/31 16:34:27;;;;;;;;;;;;;;;8.30;73.17;94897.34;4220605;28;5206;-64